Historyczne dane pomiarowe

Dodano dane terminowe – wersja testowa.

Dane z okresu 1951-2019

Wersja bazy: 1.34 [2019-03-16, lista zmian], aktualizacja planowana na 2019-04-15

Dane meteo z obszaru Polski uzyskane na podstawie danych udostępnionych przez Instytut Meteorologii i Gospodarki Wodnej – Państwowy Instytut Badawczy.

 

Wybierz Datę:    

       

TemperaturaWilgotnośćWiatrCiśnienieOpadyŚniegCzas trwania zjawisk
 Stacja t tx tn tng RH VA  wxwx mslp ppp RRR   cm mm wxwxwxwxwxwxwx
1980-04-17 8.5 16.7 -2.5- 61.0- 0.3 1.3---- 0.0------------
1980-04-18 6.0 12.6 -1.0- 74.3- 4.3 3.7---- 0.7------------
1980-04-19 4.9 9.7 1.5- 76.5- 6.7 7.7---- 0.5------------
1980-04-20 2.1 6.2 -0.1- 69.3- 4.7 4.0---- 0.0------------
1980-04-21 2.7 9.9 -5.6- 78.3- 7.0 2.3---- 4.0------------
1980-04-22 3.1 4.0 -4.5- 95.0- 8.0 5.0---- 25.4------------
1980-04-23 3.2 5.8 0.0- 87.3- 7.3 4.7---- 3.2------------
1980-04-24 4.6 10.0 0.1- 84.0- 7.0 1.7---- 0.1------------
1980-04-25 4.6 11.1 -2.2- 77.8- 3.3 2.3---- 0.0------------
1980-04-26 4.5 11.3 -2.0- 88.3- 6.0 2.3---- 2.0------------
1980-04-27 7.2 15.1 -0.9- 77.0- 7.0 0.7---- 1.7------------
1980-04-28 9.5 15.3 3.4- 83.8- 6.0 1.7---- 9.8------------
1980-04-29 10.0 15.3 6.4- 82.3- 7.0 2.3---- 1.7------------
1980-04-30 11.1 16.4 7.3- 79.8- 6.7 2.3---- 0.0------------
1980-05-01 11.5 15.5 5.2- 74.5- 6.7 1.7---- 0.1------------
1980-05-02 7.1 13.2 5.2- 89.0- 7.3 4.0---- 0.3------------
1980-05-03 3.0 5.9 0.9- 75.0- 4.7 3.0---- 0.0------------
1980-05-04 3.2 8.1 -2.4- 67.8- 7.3 4.7---- 0.0------------
1980-05-05 5.7 11.8 -2.7- 64.8- 1.3 2.0---- 0.0------------
1980-05-06 7.9 15.8 -3.0- 66.3- 3.3 3.0---- 0.0------------
1980-05-07 8.7 12.3 3.3- 82.5- 7.3 2.7---- 0.0------------
1980-05-08 10.4 19.3 1.3- 77.8- 6.3 0.7---- 0.0------------
1980-05-09 9.9 20.9 4.3- 89.8- 7.3 3.7---- 6.3------------
1980-05-10 9.2 15.0 4.6- 65.0- 5.7 3.7---- 0.0------------
1980-05-11 9.6 15.8 -0.2- 48.8- 0.0 3.0---- 0.0------------
1980-05-12 6.8 13.4 -0.4- 57.5- 0.3 1.7---- 0.0------------
1980-05-13 5.7 10.8 -2.0- 63.0- 3.0 3.7---- 0.0------------
1980-05-14 4.0 9.3 -3.5- 65.0- 2.3 1.7---- 0.0------------
1980-05-15 4.8 11.3 -4.3- 63.8- 2.0 1.0---- 0.0------------
1980-05-16 6.6 14.6 -4.6- 64.0- 4.0 1.3---- 0.0------------
159.1 ms

 

Źródłem pochodzenia danych jest Instytut Meteorologii i Gospodarki Wodnej – Państwowy Instytut Badawczy. Dane Instytutu Meteorologii i Gospodarki Wodnej – Państwowego Instytutu Badawczego zostały przetworzone.

Dane źródłowe można odnaleźć na stronie https://dane.imgw.pl